Nong Khai, Thailand

8:27 PM ICT on September 05, 2015 (GMT +0700)
Wattay International | | Change Station
CLOSE
Current Station
Airport
Location: Vientiane,
Elevation: 561 ft
Nearby Weather Stations

Elev 561 ft 17.95 °N, 102.57 °E | Updated 27 minutes ago

Thunderstorm
Thunderstorm
84 °F
Feels Like 94 °F
N
7
Wind Variable Wind from SSE

Today
High -- | Low -- °F
--% Chance of Precip.
Yesterday
High -- | Low -- °F
Precip. -- in
5:55 AM 6:20 PM
Waning Gibbous, 48% visible
Pressure 29.80 in
Visibility 2.5 miles
Clouds Scattered Clouds 2000 ft
Scattered Clouds 4000 ft
Heat Index 94 °F
Dew Point 77 °F
Humidity 79%
Rainfall 0.00 in
Snow Depth Not available.
UV 0 out of 12
Pollen Not available.
Air Quality Not available.
Flu Activity Not available.
METAR VLVT 051300Z 16006KT 4000 TS SCT020CB SCT040 29/25 Q1009 CB/NW NOSIG
Pressure 29.80 in
Visibility 2.5 miles
Clouds Scattered Clouds 2000 ft
Scattered Clouds 4000 ft
Heat Index 94 °F
Dew Point 77 °F
Humidity 79%
Rainfall 0.00 in
Snow Depth Not available.
UV 0 out of 12
Pollen Not available.
Air Quality Not available.
Flu Activity Not available.
METAR VLVT 051300Z 16006KT 4000 TS SCT020CB SCT040 29/25 Q1009 CB/NW NOSIG

10-Day Weather Forecast

×

Almanac

Astronomy

Sep. 05, 2015 Rise Set
Actual Time
Civil Twilight
Nautical Twilight
Astronomical Twilight
Moon
Length of Visible Light
Length of Day
Tomorrow will be .
, % of the Moon is Illuminated

Today's Extremes

Country Highs Country Lows

Community

WunderPhotos

Upload Photos

1,852,454 photos uploaded!

WunderBlogs® & News

Nearby

Air Quality

  Air Quality AQ Index Pollutant
Not available.

Snow Depth

Station Depth Elevation

Earthquake Activity

City Distance Mag. Time & Date
Minimum magnitude displayed is 2.5.

Coastal Water Temperatures

Place Temperature

Stations

Nearby Weather Stations

Station Location Temp. Windchill Dew Point Humidity Wind Precip. Elev Updated Type